createdAt,value
2022-09-02T00:02:09.441Z,17.86
2022-09-02T00:05:11.159Z,17.70
2022-09-02T00:08:12.828Z,17.68
2022-09-02T00:11:18.426Z,17.43
2022-09-02T00:14:28.736Z,17.50
2022-09-02T00:17:30.262Z,17.61
2022-09-02T00:20:31.775Z,17.74
2022-09-02T00:23:33.566Z,17.79
2022-09-02T00:26:35.110Z,17.61
2022-09-02T00:29:36.655Z,17.60
2022-09-02T00:32:38.638Z,17.45
2022-09-02T00:35:41.122Z,17.58
2022-09-02T00:38:42.777Z,17.49
2022-09-02T00:41:44.850Z,17.31
2022-09-02T00:44:46.993Z,17.32
2022-09-02T00:47:51.734Z,17.37
2022-09-02T00:50:53.486Z,17.24
2022-09-02T00:53:55.780Z,17.33
2022-09-02T00:56:57.935Z,17.33
2022-09-02T01:00:18.466Z,17.34
2022-09-02T01:03:21.809Z,17.63
2022-09-02T01:06:27.502Z,17.52
2022-09-02T01:09:31.921Z,17.48
2022-09-02T01:12:34.039Z,17.36
2022-09-02T01:15:39.132Z,16.96
2022-09-02T01:18:45.398Z,16.85
2022-09-02T01:21:55.171Z,16.82
2022-09-02T01:25:02.523Z,16.60
2022-09-02T01:28:10.122Z,16.61
2022-09-02T01:31:12.147Z,16.77
2022-09-02T01:34:13.760Z,17.00
2022-09-02T01:37:15.544Z,16.99
2022-09-02T01:40:18.306Z,16.83
2022-09-02T01:43:23.903Z,16.86
2022-09-02T01:46:25.392Z,16.52
2022-09-02T01:49:27.041Z,16.93
2022-09-02T01:52:29.737Z,17.01
2022-09-02T01:55:33.083Z,16.86
2022-09-02T01:58:34.659Z,16.76
2022-09-02T02:01:36.242Z,16.98
2022-09-02T02:04:37.878Z,16.97
2022-09-02T02:07:40.925Z,16.90
2022-09-02T02:10:42.987Z,16.81
2022-09-02T02:13:44.573Z,17.21
2022-09-02T02:16:47.450Z,17.68
2022-09-02T02:19:48.920Z,17.59
2022-09-02T02:22:50.454Z,17.46
2022-09-02T02:25:52.026Z,17.28
2022-09-02T02:28:53.796Z,17.20
2022-09-02T02:31:55.360Z,17.04
2022-09-02T02:34:57.040Z,17.12
2022-09-02T02:37:58.564Z,16.97
2022-09-02T02:41:06.458Z,16.76
2022-09-02T02:44:09.085Z,16.71
2022-09-02T02:47:10.685Z,16.39
2022-09-02T02:50:13.729Z,16.42
2022-09-02T02:53:17.426Z,16.17
2022-09-02T02:56:19.282Z,16.38
2022-09-02T02:59:20.843Z,16.10
2022-09-02T03:02:23.024Z,16.20
2022-09-02T03:05:26.013Z,16.85
2022-09-02T03:08:27.789Z,17.10
2022-09-02T03:11:29.344Z,17.27
2022-09-02T03:14:31.203Z,17.40
2022-09-02T03:17:32.777Z,17.41
2022-09-02T03:20:34.343Z,17.32
2022-09-02T03:23:36.298Z,17.37
2022-09-02T03:26:40.656Z,17.38
2022-09-02T03:29:42.232Z,17.48
2022-09-02T03:32:44.187Z,17.44
2022-09-02T03:35:45.723Z,17.25
2022-09-02T03:38:47.679Z,16.99
2022-09-02T03:41:50.341Z,16.89
2022-09-02T03:44:51.845Z,17.02
2022-09-02T03:47:54.269Z,17.14
2022-09-02T03:50:56.002Z,17.18
2022-09-02T03:53:57.563Z,17.30
2022-09-02T03:56:59.059Z,17.20
2022-09-02T04:00:02.050Z,17.12
2022-09-02T04:03:04.119Z,17.16
2022-09-02T04:06:06.394Z,16.83
2022-09-02T04:09:07.989Z,17.21
2022-09-02T04:12:09.492Z,17.44
2022-09-02T04:15:12.318Z,17.31
2022-09-02T04:19:10.271Z,17.27
2022-09-02T04:22:11.824Z,17.09
2022-09-02T04:25:13.934Z,16.98
2022-09-02T04:28:15.422Z,17.17
2022-09-02T04:31:19.305Z,17.06
2022-09-02T04:34:20.885Z,17.19
2022-09-02T04:37:22.535Z,17.27
2022-09-02T04:40:24.425Z,17.28
2022-09-02T04:43:26.098Z,17.52
2022-09-02T04:46:34.190Z,17.31
2022-09-02T04:49:36.319Z,17.65
2022-09-02T04:52:38.043Z,17.58
2022-09-02T04:55:41.117Z,17.54
2022-09-02T04:58:44.420Z,17.29
2022-09-02T05:01:46.017Z,17.00
2022-09-02T05:04:47.569Z,16.75
2022-09-02T05:07:49.288Z,16.72
2022-09-02T05:10:54.066Z,16.73
2022-09-02T05:13:58.077Z,16.85
2022-09-02T05:17:05.207Z,16.76
2022-09-02T05:20:09.991Z,16.67
2022-09-02T05:23:13.129Z,16.42
2022-09-02T05:26:15.144Z,17.04
2022-09-02T05:29:20.508Z,16.74
2022-09-02T05:32:23.186Z,16.45
2022-09-02T05:35:24.781Z,16.46
2022-09-02T05:38:26.303Z,16.30
2022-09-02T05:41:28.650Z,16.38
2022-09-02T05:44:31.511Z,16.21
2022-09-02T05:47:36.080Z,15.95
2022-09-02T05:50:37.595Z,15.98
2022-09-02T05:53:39.036Z,15.96
2022-09-02T05:56:44.965Z,15.90
2022-09-02T05:59:48.902Z,15.84
2022-09-02T06:02:51.193Z,15.96
2022-09-02T06:06:04.422Z,15.86
2022-09-02T06:09:11.409Z,15.83
2022-09-02T06:12:14.797Z,15.80
2022-09-02T06:15:17.788Z,15.69
2022-09-02T06:18:19.274Z,15.85
2022-09-02T06:21:20.988Z,15.77
2022-09-02T06:24:23.364Z,15.89
2022-09-02T06:27:24.900Z,15.92
2022-09-02T06:30:26.701Z,15.81
2022-09-02T06:33:28.235Z,16.06
2022-09-02T06:36:30.733Z,15.95
2022-09-02T06:39:32.284Z,16.01
2022-09-02T06:42:34.051Z,15.99
2022-09-02T06:45:40.411Z,16.06
2022-09-02T06:48:42.419Z,16.17
2022-09-02T06:51:47.015Z,16.23
2022-09-02T06:54:50.009Z,16.16
2022-09-02T06:57:51.810Z,16.34
2022-09-02T07:00:53.283Z,16.35
2022-09-02T07:04:15.303Z,16.71
2022-09-02T07:07:16.819Z,16.73
2022-09-02T07:10:18.632Z,16.80
2022-09-02T07:13:20.276Z,17.26
2022-09-02T07:16:26.719Z,17.77
2022-09-02T07:19:28.801Z,17.86
2022-09-02T07:22:30.293Z,18.36
2022-09-02T07:25:32.083Z,18.28
2022-09-02T07:28:34.487Z,18.77
2022-09-02T07:31:37.627Z,18.60
2022-09-02T07:34:39.107Z,18.86
2022-09-02T07:37:41.106Z,19.12
2022-09-02T07:40:43.230Z,19.05
2022-09-02T07:43:48.357Z,19.33
2022-09-02T07:46:52.853Z,19.27
2022-09-02T07:53:16.679Z,19.59
2022-09-02T07:56:19.640Z,19.85
2022-09-02T07:59:21.896Z,19.78
2022-09-02T08:02:23.563Z,20.02
2022-09-02T08:05:25.514Z,20.10
2022-09-02T08:08:27.555Z,20.14
2022-09-02T08:11:29.195Z,20.21
2022-09-02T08:14:30.826Z,20.38
2022-09-02T08:17:32.585Z,20.60
2022-09-02T08:20:34.941Z,20.62
2022-09-02T08:23:37.679Z,20.73
2022-09-02T08:26:39.644Z,20.92
2022-09-02T08:29:41.158Z,21.00
2022-09-02T08:32:42.571Z,21.07
2022-09-02T08:35:44.087Z,21.40
2022-09-02T08:38:45.546Z,21.23
2022-09-02T08:41:53.091Z,21.26
2022-09-02T08:45:00.856Z,21.48
2022-09-02T08:48:12.604Z,21.63
2022-09-02T08:51:21.791Z,21.67
2022-09-02T08:54:36.337Z,21.75
2022-09-02T08:57:44.316Z,21.67
2022-09-02T09:00:57.097Z,21.98
2022-09-02T09:04:33.281Z,22.12
2022-09-02T09:07:40.739Z,21.99
2022-09-02T09:11:11.347Z,22.08
2022-09-02T09:14:27.606Z,22.20
2022-09-02T09:17:37.066Z,22.13
2022-09-02T09:20:41.753Z,22.48
2022-09-02T09:23:44.995Z,22.46
2022-09-02T09:26:47.349Z,22.53
2022-09-02T09:29:50.492Z,22.62
2022-09-02T09:32:57.397Z,22.43
2022-09-02T09:35:58.912Z,22.55
2022-09-02T09:39:16.404Z,22.67
2022-09-02T09:42:38.783Z,22.89
2022-09-02T09:45:46.043Z,23.08
2022-09-02T09:48:51.530Z,23.24
2022-09-02T09:51:56.348Z,23.32
2022-09-02T09:55:22.734Z,23.27
2022-09-02T09:58:34.280Z,23.48
2022-09-02T10:01:36.875Z,23.54
2022-09-02T10:04:45.672Z,23.54
2022-09-02T10:07:54.963Z,23.39
2022-09-02T10:11:02.018Z,23.70
2022-09-02T10:14:10.048Z,23.52
2022-09-02T10:17:32.437Z,23.38
2022-09-02T10:21:11.407Z,24.09
2022-09-02T10:24:27.110Z,23.99
2022-09-02T10:27:40.823Z,24.12
2022-09-02T10:31:16.775Z,24.23
2022-09-02T10:34:21.153Z,24.59
2022-09-02T10:37:32.215Z,24.52
2022-09-02T10:40:49.946Z,24.56
2022-09-02T10:44:07.714Z,24.37
2022-09-02T10:47:31.960Z,24.76
2022-09-02T10:50:37.602Z,24.55
2022-09-02T10:53:53.971Z,24.68
2022-09-02T10:57:04.793Z,24.66
2022-09-02T11:00:20.234Z,24.35
2022-09-02T11:03:30.182Z,24.04
2022-09-02T11:06:52.042Z,24.26
2022-09-02T11:10:17.868Z,24.98
2022-09-02T11:13:31.877Z,25.32
2022-09-02T11:16:45.304Z,25.24
2022-09-02T11:19:50.874Z,24.70
2022-09-02T11:23:01.259Z,25.18
2022-09-02T11:26:19.874Z,25.08
2022-09-02T11:29:37.004Z,25.65
2022-09-02T11:32:50.364Z,25.53
2022-09-02T11:35:51.935Z,25.25
2022-09-02T11:39:25.814Z,25.73
2022-09-02T11:43:34.717Z,25.98
2022-09-02T11:46:46.278Z,25.57
2022-09-02T11:49:50.543Z,25.34
2022-09-02T11:53:04.240Z,25.49
2022-09-02T11:56:37.518Z,25.72
2022-09-02T11:59:50.826Z,25.20
2022-09-02T12:03:40.886Z,24.94
2022-09-02T12:07:07.294Z,25.69
2022-09-02T12:10:10.757Z,25.40
2022-09-02T12:13:41.991Z,25.75
2022-09-02T12:17:03.602Z,25.82
2022-09-02T12:20:29.424Z,25.69
2022-09-02T12:23:49.698Z,24.85
2022-09-02T12:26:51.129Z,25.74
2022-09-02T12:29:55.584Z,25.57
2022-09-02T12:33:09.795Z,25.97
2022-09-02T12:36:52.020Z,26.27
2022-09-02T12:39:56.943Z,26.05
2022-09-02T12:43:03.524Z,26.52
2022-09-02T12:46:22.842Z,25.77
2022-09-02T12:49:36.135Z,25.68
2022-09-02T12:52:49.530Z,26.22
2022-09-02T12:56:24.037Z,26.22
2022-09-02T12:59:40.431Z,26.96
2022-09-02T13:03:14.797Z,27.42
2022-09-02T13:06:42.861Z,27.17
2022-09-02T13:09:51.975Z,27.01
2022-09-02T13:13:10.741Z,27.31
2022-09-02T13:16:18.522Z,27.06
2022-09-02T13:20:02.212Z,27.09
2022-09-02T13:23:37.632Z,27.59
2022-09-02T13:30:06.821Z,27.63
2022-09-02T13:33:11.368Z,27.17
2022-09-02T13:36:26.308Z,27.05
2022-09-02T13:39:28.427Z,27.41
2022-09-02T13:42:32.829Z,27.09
2022-09-02T13:45:36.481Z,27.19
2022-09-02T13:48:40.152Z,27.75
2022-09-02T13:51:45.282Z,27.54
2022-09-02T13:54:52.634Z,27.71
2022-09-02T13:57:58.060Z,27.28
2022-09-02T14:01:19.925Z,27.85
2022-09-02T14:04:23.563Z,27.45
2022-09-02T14:07:32.251Z,27.90
2022-09-02T14:10:37.152Z,27.40
2022-09-02T14:13:46.223Z,27.57
2022-09-02T14:16:49.506Z,27.39
2022-09-02T14:19:52.478Z,28.02
2022-09-02T14:22:59.687Z,27.67
2022-09-02T14:26:02.806Z,27.70
2022-09-02T14:29:06.411Z,27.14
2022-09-02T14:32:14.453Z,27.89
2022-09-02T14:35:21.250Z,28.52
2022-09-02T14:38:24.253Z,27.93
2022-09-02T14:41:27.636Z,28.22
2022-09-02T14:44:36.297Z,27.93
2022-09-02T14:47:40.914Z,27.92
2022-09-02T14:50:43.167Z,27.93
2022-09-02T14:53:44.861Z,27.60
2022-09-02T14:56:50.275Z,27.98
2022-09-02T14:59:52.465Z,27.09
2022-09-02T15:02:57.193Z,26.78
2022-09-02T15:05:58.922Z,27.24
2022-09-02T15:09:00.627Z,28.13
2022-09-02T15:12:03.224Z,27.94
2022-09-02T15:15:06.175Z,27.84
2022-09-02T15:18:09.375Z,27.92
2022-09-02T15:21:11.450Z,27.71
2022-09-02T15:24:13.286Z,28.00
2022-09-02T15:27:15.557Z,27.73
2022-09-02T15:30:20.652Z,27.45
2022-09-02T15:33:23.833Z,27.71
2022-09-02T15:36:27.555Z,27.34
2022-09-02T15:39:30.408Z,27.62
2022-09-02T15:42:34.324Z,27.27
2022-09-02T15:45:37.812Z,26.84
2022-09-02T15:48:40.866Z,27.49
2022-09-02T15:51:47.197Z,27.20
2022-09-02T15:54:48.846Z,27.15
2022-09-02T15:57:50.577Z,26.67
2022-09-02T16:00:52.227Z,26.76
2022-09-02T16:03:58.171Z,26.46
2022-09-02T16:07:01.084Z,26.24
2022-09-02T16:10:03.708Z,26.13
2022-09-02T16:13:05.654Z,25.98
2022-09-02T16:16:09.480Z,26.09
2022-09-02T16:19:13.487Z,26.16
2022-09-02T16:22:15.232Z,26.20
2022-09-02T16:25:16.990Z,25.79
2022-09-02T16:28:18.673Z,25.87
2022-09-02T16:31:21.918Z,25.91
2022-09-02T16:34:25.000Z,25.75
2022-09-02T16:37:26.812Z,25.65
2022-09-02T16:40:28.420Z,25.49
2022-09-02T16:43:31.447Z,25.57
2022-09-02T16:46:34.607Z,25.61
2022-09-02T16:49:37.674Z,25.34
2022-09-02T16:52:41.002Z,25.33
2022-09-02T16:55:43.758Z,25.22
2022-09-02T16:58:45.409Z,25.31
2022-09-02T17:01:47.266Z,25.15
2022-09-02T17:04:50.359Z,24.97
2022-09-02T17:07:55.447Z,24.99
2022-09-02T17:11:11.851Z,25.04
2022-09-02T17:14:16.326Z,24.76
2022-09-02T17:17:18.559Z,24.70
2022-09-02T17:20:22.690Z,24.27
2022-09-02T17:23:24.444Z,24.27
2022-09-02T17:26:28.586Z,24.12
2022-09-02T17:32:56.396Z,23.85
2022-09-02T17:36:01.496Z,23.82
2022-09-02T17:39:05.759Z,23.79
2022-09-02T17:42:07.691Z,23.64
2022-09-02T17:45:10.044Z,23.48
2022-09-02T17:48:34.697Z,23.51
2022-09-02T17:51:34.870Z,23.12
2022-09-02T17:54:37.789Z,23.21
2022-09-02T17:57:51.758Z,22.89
2022-09-02T18:00:58.782Z,22.63
2022-09-02T18:04:20.213Z,22.39
2022-09-02T18:07:30.201Z,22.40
2022-09-02T18:10:35.653Z,22.33
2022-09-02T18:13:48.018Z,22.15
2022-09-02T18:17:05.430Z,22.19
2022-09-02T18:20:12.151Z,22.40
2022-09-02T18:23:29.179Z,22.46
2022-09-02T18:26:48.930Z,22.35
2022-09-02T18:30:03.298Z,22.32
2022-09-02T18:33:20.509Z,22.69
2022-09-02T18:36:34.284Z,22.46
2022-09-02T18:39:57.309Z,22.25
2022-09-02T18:43:13.384Z,22.14
2022-09-02T18:46:17.897Z,22.77
2022-09-02T18:49:22.519Z,22.42
2022-09-02T18:52:29.540Z,22.41
2022-09-02T18:55:36.696Z,22.27
2022-09-02T18:58:42.222Z,22.14
2022-09-02T19:01:47.989Z,22.15
2022-09-02T19:04:50.059Z,21.92
2022-09-02T19:08:18.829Z,21.88
2022-09-02T19:11:23.231Z,21.91
2022-09-02T19:14:26.578Z,21.64
2022-09-02T19:17:28.392Z,21.49
2022-09-02T19:20:30.256Z,21.18
2022-09-02T19:23:32.696Z,21.25
2022-09-02T19:26:36.614Z,21.13
2022-09-02T19:29:43.027Z,21.48
2022-09-02T19:32:47.812Z,21.32
2022-09-02T19:35:50.854Z,21.16
2022-09-02T19:38:52.580Z,21.46
2022-09-02T19:41:55.656Z,21.35
2022-09-02T19:44:57.355Z,21.54
2022-09-02T19:48:08.452Z,21.39
2022-09-02T19:51:13.994Z,21.08
2022-09-02T19:54:18.323Z,21.39
2022-09-02T19:57:21.330Z,21.42
2022-09-02T20:00:23.129Z,21.52
2022-09-02T20:03:25.202Z,21.42
2022-09-02T20:06:27.247Z,21.55
2022-09-02T20:09:29.304Z,21.49
2022-09-02T20:12:33.414Z,21.35
2022-09-02T20:15:37.311Z,21.39
2022-09-02T20:18:45.363Z,21.47
2022-09-02T20:21:47.238Z,21.30
2022-09-02T20:24:48.869Z,21.45
2022-09-02T20:28:06.069Z,21.16
2022-09-02T20:31:27.296Z,21.07
2022-09-02T20:34:39.279Z,21.22
2022-09-02T20:37:51.835Z,21.12
2022-09-02T20:41:00.131Z,21.11
2022-09-02T20:44:29.703Z,21.20
2022-09-02T20:47:46.779Z,21.34
2022-09-02T20:50:53.177Z,21.10
2022-09-02T20:54:11.256Z,21.19
2022-09-02T20:57:29.645Z,21.11
2022-09-02T21:00:32.936Z,21.16
2022-09-02T21:03:45.190Z,21.39
2022-09-02T21:06:53.943Z,21.25
2022-09-02T21:10:03.395Z,21.04
2022-09-02T21:13:10.218Z,20.96
2022-09-02T21:16:19.681Z,21.01
2022-09-02T21:19:29.380Z,21.17
2022-09-02T21:22:37.690Z,21.02
2022-09-02T21:25:48.111Z,21.24
2022-09-02T21:28:51.350Z,20.98
2022-09-02T21:32:00.406Z,20.96
2022-09-02T21:35:05.669Z,21.11
2022-09-02T21:38:11.192Z,20.86
2022-09-02T21:41:29.389Z,20.91
2022-09-02T21:44:43.375Z,20.90
2022-09-02T21:47:53.915Z,20.90
2022-09-02T21:50:58.896Z,20.85
2022-09-02T21:54:13.726Z,20.97
2022-09-02T21:57:40.067Z,20.72
2022-09-02T22:00:47.135Z,20.75
2022-09-02T22:03:55.344Z,20.70
2022-09-02T22:07:18.981Z,20.70
2022-09-02T22:10:29.669Z,20.51
2022-09-02T22:13:32.695Z,20.60
2022-09-02T22:16:41.659Z,20.55
2022-09-02T22:19:45.052Z,20.58
2022-09-02T22:22:53.325Z,20.56
2022-09-02T22:25:55.595Z,20.85
2022-09-02T22:29:03.825Z,20.62
2022-09-02T22:32:09.642Z,20.52
2022-09-02T22:35:22.891Z,20.40
2022-09-02T22:38:34.706Z,20.55
2022-09-02T22:41:50.892Z,20.57
2022-09-02T22:45:18.077Z,20.60
2022-09-02T22:48:42.922Z,20.57
2022-09-02T22:52:08.941Z,20.58
2022-09-02T22:55:10.940Z,20.46
2022-09-02T22:58:30.835Z,20.37
2022-09-02T23:01:43.579Z,20.41
2022-09-02T23:05:02.727Z,20.56
2022-09-02T23:08:07.873Z,20.46
2022-09-02T23:11:13.229Z,20.38
2022-09-02T23:14:26.476Z,20.55
2022-09-02T23:17:36.784Z,20.39
2022-09-02T23:20:48.146Z,20.40
2022-09-02T23:24:01.837Z,20.49
2022-09-02T23:27:09.787Z,20.39
2022-09-02T23:30:13.698Z,20.44
2022-09-02T23:33:28.046Z,20.43
2022-09-02T23:36:41.338Z,20.46
2022-09-02T23:39:57.066Z,20.49
2022-09-02T23:42:59.349Z,20.60
2022-09-02T23:46:09.063Z,20.67
2022-09-02T23:49:18.966Z,20.64
2022-09-02T23:52:26.318Z,20.71
2022-09-02T23:55:43.726Z,20.64
2022-09-02T23:59:03.463Z,20.71
